Time;durP1;ratioP1;P1;durP2;ratioP2;P2;SDS_P1;SDS_P2;PMS_P1;PMS_P2;Temp;Humidity;BMP_temperature;BMP_pressure;BME280_temperature;BME280_humidity;BME280_pressure;Samples;Min_cycle;Max_cycle;Signal;HPM_P1;HPM_P2
2021/06/13 00:14:32;;;;;;;;;;;18.40;99.90;;;;;;6292572;22;19926;-80
2021/06/13 00:16:59;;;;;;;;;;;18.40;99.90;;;;;;6250491;22;19920;-80
2021/06/13 00:19:26;;;;;;;;;;;18.30;99.90;;;;;;6225859;22;19969;-80
2021/06/13 00:21:53;;;;;;;;;;;18.30;99.90;;;;;;6250425;22;19965;-80
2021/06/13 00:24:21;;;;;;;;;;;18.30;99.90;;;;;;6250076;22;19924;-80
2021/06/13 00:26:48;;;;;;;;;;;18.40;99.90;;;;;;6250179;22;19920;-80
2021/06/13 00:29:15;;;;;;;;;;;18.40;99.90;;;;;;6224804;22;19919;-80
2021/06/13 00:31:43;;;;;;;;;;;18.40;99.90;;;;;;6249527;22;19920;-80
2021/06/13 00:34:09;;;;;;;;;;;18.30;99.90;;;;;;6250023;22;19926;-80
2021/06/13 00:36:36;;;;;;;;;;;18.30;99.90;;;;;;6249679;22;19934;-80
2021/06/13 00:39:03;;;;;;;;;;;18.20;99.90;;;;;;6225491;22;19947;-80
2021/06/13 00:41:31;;;;;;;;;;;18.20;99.90;;;;;;6252418;22;19967;-81
2021/06/13 00:43:58;;;;;;;;;;;18.20;99.90;;;;;;6251094;22;19920;-80
2021/06/13 00:46:25;;;;;;;;;;;18.20;99.90;;;;;;6225498;22;19919;-80
2021/06/13 00:48:57;;;;;;;;;;;18.20;99.90;;;;;;6226709;22;19919;-80
2021/06/13 00:51:31;;;;;;;;;;;18.20;99.90;;;;;;6226359;22;19930;-80
2021/06/13 00:53:58;;;;;;;;;;;18.20;99.90;;;;;;6225119;22;20303;-80
2021/06/13 00:56:31;;;;;;;;;;;18.10;99.90;;;;;;6250176;22;19927;-80
2021/06/13 00:59:03;;;;;;;;;;;18.10;99.90;;;;;;6225719;22;19919;-80
2021/06/13 01:01:30;;;;;;;;;;;18.10;99.90;;;;;;6224430;22;20372;-80
2021/06/13 01:03:57;;;;;;;;;;;18.00;99.90;;;;;;6249556;22;20340;-80
2021/06/13 01:06:42;;;;;;;;;;;18.00;99.90;;;;;;6249443;22;19919;-80
2021/06/13 01:09:10;;;;;;;;;;;18.00;99.90;;;;;;6249515;22;19998;-81
2021/06/13 01:11:40;;;;;;;;;;;17.90;99.90;;;;;;6224534;22;19977;-79
2021/06/13 01:14:12;;;;;;;;;;;17.90;99.90;;;;;;6249115;22;19919;-80
2021/06/13 01:16:43;;;;;;;;;;;17.90;99.90;;;;;;6224424;22;20263;-80
2021/06/13 01:19:16;;;;;;;;;;;17.80;99.90;;;;;;6224623;22;20340;-80
2021/06/13 01:21:49;;;;;;;;;;;17.70;99.90;;;;;;6249183;22;20341;-80
2021/06/13 01:24:26;;;;;;;;;;;17.70;99.90;;;;;;6224773;22;19946;-80
2021/06/13 01:27:07;;;;;;;;;;;17.70;99.90;;;;;;6225282;22;19920;-80
2021/06/13 01:29:38;;;;;;;;;;;17.70;99.90;;;;;;6224701;22;19999;-80
2021/06/13 01:32:16;;;;;;;;;;;17.70;99.90;;;;;;6251186;22;19925;-80
2021/06/13 01:35:04;;;;;;;;;;;17.70;99.90;;;;;;6224791;22;19925;-80
2021/06/13 01:37:34;;;;;;;;;;;17.70;99.90;;;;;;6224482;22;19972;-80
2021/06/13 01:40:08;;;;;;;;;;;17.70;99.90;;;;;;6224990;22;19953;-80
2021/06/13 01:42:40;;;;;;;;;;;17.70;99.90;;;;;;6224961;22;19942;-80
2021/06/13 01:45:09;;;;;;;;;;;17.70;99.90;;;;;;6224529;22;19919;-80
2021/06/13 01:47:42;;;;;;;;;;;17.70;99.90;;;;;;6225369;22;19923;-79
2021/06/13 01:50:10;;;;;;;;;;;17.70;99.90;;;;;;6249543;22;20364;-80
2021/06/13 01:52:38;;;;;;;;;;;17.70;99.90;;;;;;6224414;22;20002;-79
2021/06/13 01:55:08;;;;;;;;;;;17.70;99.90;;;;;;6225095;22;19939;-80
2021/06/13 01:57:41;;;;;;;;;;;17.60;99.90;;;;;;6249792;22;19919;-80
2021/06/13 02:00:31;;;;;;;;;;;17.60;99.90;;;;;;6249579;22;19923;-80
2021/06/13 02:03:06;;;;;;;;;;;17.60;99.90;;;;;;6226170;22;19950;-80
2021/06/13 02:05:48;;;;;;;;;;;17.50;99.90;;;;;;6227423;22;19923;-80
2021/06/13 02:08:18;;;;;;;;;;;17.50;99.90;;;;;;6249736;22;19998;-80
2021/06/13 02:11:04;;;;;;;;;;;17.50;99.90;;;;;;6277379;22;19965;-80
2021/06/13 02:13:37;;;;;;;;;;;17.50;99.90;;;;;;6253122;22;19973;-79
2021/06/13 02:16:08;;;;;;;;;;;17.50;99.90;;;;;;6251400;22;20267;-80
2021/06/13 02:18:35;;;;;;;;;;;17.40;99.90;;;;;;6226492;22;19969;-80
2021/06/13 02:21:06;;;;;;;;;;;17.40;99.90;;;;;;6251450;22;20001;-80
2021/06/13 02:23:39;;;;;;;;;;;17.40;99.90;;;;;;6227705;22;19919;-80
2021/06/13 02:26:13;;;;;;;;;;;17.30;99.90;;;;;;6227526;22;20348;-79
2021/06/13 02:28:47;;;;;;;;;;;17.20;99.90;;;;;;6227662;22;19925;-80
2021/06/13 02:31:15;;;;;;;;;;;17.20;99.90;;;;;;6251512;22;19923;-80
2021/06/13 02:33:43;;;;;;;;;;;17.20;99.90;;;;;;6251520;22;19919;-80
2021/06/13 02:36:14;;;;;;;;;;;17.10;99.90;;;;;;6251558;22;20340;-80
2021/06/13 02:38:56;;;;;;;;;;;17.10;99.90;;;;;;6228809;22;19926;-80
2021/06/13 02:41:24;;;;;;;;;;;17.10;99.90;;;;;;6226433;22;20415;-80
2021/06/13 02:43:52;;;;;;;;;;;17.10;99.90;;;;;;6251483;22;19923;-80
2021/06/13 02:46:33;;;;;;;;;;;17.10;99.90;;;;;;6229315;22;19942;-80
2021/06/13 02:49:08;;;;;;;;;;;17.10;99.90;;;;;;6227482;22;19919;-80
2021/06/13 02:51:36;;;;;;;;;;;17.10;99.90;;;;;;6251479;22;19926;-79
2021/06/13 02:54:08;;;;;;;;;;;17.10;99.90;;;;;;6226552;22;19919;-79
2021/06/13 02:56:45;;;;;;;;;;;17.10;99.90;;;;;;6251191;22;20003;-79
2021/06/13 02:59:23;;;;;;;;;;;17.00;99.90;;;;;;6226044;22;19920;-80
2021/06/13 03:01:56;;;;;;;;;;;17.00;99.90;;;;;;6227107;22;19965;-80
2021/06/13 03:04:32;;;;;;;;;;;17.00;99.90;;;;;;6227894;22;19924;-80
2021/06/13 03:07:00;;;;;;;;;;;17.00;99.90;;;;;;6225912;22;20355;-80
2021/06/13 03:09:29;;;;;;;;;;;17.00;99.90;;;;;;6251398;22;19919;-79
2021/06/13 03:11:56;;;;;;;;;;;16.90;99.90;;;;;;6251354;22;19919;-80
2021/06/13 03:14:26;;;;;;;;;;;16.90;99.90;;;;;;6226304;22;19942;-80
2021/06/13 03:16:53;;;;;;;;;;;16.90;99.90;;;;;;6226076;22;19919;-80
2021/06/13 03:19:20;;;;;;;;;;;16.90;99.90;;;;;;6226005;22;20229;-80
2021/06/13 03:21:52;;;;;;;;;;;16.90;99.90;;;;;;6226380;22;19924;-80
2021/06/13 03:24:20;;;;;;;;;;;16.90;99.90;;;;;;6225787;22;19925;-80
2021/06/13 03:26:49;;;;;;;;;;;16.90;99.90;;;;;;6250650;22;19923;-80
2021/06/13 03:29:17;;;;;;;;;;;16.90;99.90;;;;;;6226089;22;19990;-81
2021/06/13 03:31:47;;;;;;;;;;;16.70;99.90;;;;;;6226289;22;19981;-80
2021/06/13 03:34:14;;;;;;;;;;;16.60;99.90;;;;;;6225840;22;20363;-79
2021/06/13 03:36:47;;;;;;;;;;;16.50;99.90;;;;;;6250946;22;19919;-80
2021/06/13 03:39:14;;;;;;;;;;;16.50;99.90;;;;;;6250775;22;19919;-80
2021/06/13 03:41:42;;;;;;;;;;;16.40;99.90;;;;;;6278078;22;19919;-79
2021/06/13 03:44:09;;;;;;;;;;;16.50;99.90;;;;;;6251246;22;20322;-80
2021/06/13 03:46:37;;;;;;;;;;;16.40;99.90;;;;;;6225617;22;19919;-80
2021/06/13 03:49:05;;;;;;;;;;;16.40;99.90;;;;;;6225689;22;19929;-80
2021/06/13 03:51:37;;;;;;;;;;;16.40;99.90;;;;;;6250871;22;19926;-79
2021/06/13 03:54:04;;;;;;;;;;;16.40;99.90;;;;;;6250485;22;19931;-80
2021/06/13 03:56:38;;;;;;;;;;;16.40;99.90;;;;;;6226573;22;19919;-80
2021/06/13 03:59:10;;;;;;;;;;;16.40;99.90;;;;;;6250807;22;19941;-80
2021/06/13 04:01:38;;;;;;;;;;;16.30;99.90;;;;;;6225445;22;19919;-80
2021/06/13 04:04:11;;;;;;;;;;;16.30;99.90;;;;;;6251032;22;19923;-79
2021/06/13 04:06:39;;;;;;;;;;;16.30;99.90;;;;;;6228699;22;19926;-80
2021/06/13 04:09:08;;;;;;;;;;;16.30;99.90;;;;;;6252628;22;20504;-80
2021/06/13 04:11:36;;;;;;;;;;;16.30;99.90;;;;;;6226996;22;19919;-80
2021/06/13 04:14:03;;;;;;;;;;;16.30;99.90;;;;;;6225771;22;19923;-80
2021/06/13 04:16:35;;;;;;;;;;;16.40;99.90;;;;;;6226287;22;19946;-80
2021/06/13 04:19:02;;;;;;;;;;;16.40;99.90;;;;;;6277706;22;20271;-80
2021/06/13 04:21:29;;;;;;;;;;;16.40;99.90;;;;;;6277313;22;19935;-80
2021/06/13 04:23:59;;;;;;;;;;;16.40;99.90;;;;;;6250112;22;19990;-80
2021/06/13 04:26:26;;;;;;;;;;;16.30;99.90;;;;;;6225166;22;19919;-80
2021/06/13 04:28:53;;;;;;;;;;;16.30;99.90;;;;;;6250542;22;20362;-79
2021/06/13 04:31:28;;;;;;;;;;;16.20;99.90;;;;;;6249877;22;19927;-80
2021/06/13 04:33:55;;;;;;;;;;;16.30;99.90;;;;;;6225017;22;19950;-80
2021/06/13 04:36:22;;;;;;;;;;;16.30;99.90;;;;;;6250333;22;19919;-80
2021/06/13 04:38:54;;;;;;;;;;;16.20;99.90;;;;;;6226279;22;19994;-79
2021/06/13 04:41:26;;;;;;;;;;;16.30;99.90;;;;;;6277177;22;20237;-80
2021/06/13 04:43:58;;;;;;;;;;;16.30;99.90;;;;;;6226760;22;19923;-80
2021/06/13 04:46:28;;;;;;;;;;;16.30;99.90;;;;;;6225267;22;19943;-80
2021/06/13 04:48:55;;;;;;;;;;;16.30;99.90;;;;;;6225137;22;19973;-80
2021/06/13 04:51:23;;;;;;;;;;;16.30;99.90;;;;;;6224804;22;19923;-80
2021/06/13 04:54:11;;;;;;;;;;;16.30;99.90;;;;;;6249960;22;19923;-79
2021/06/13 04:56:43;;;;;;;;;;;16.30;99.90;;;;;;6233575;22;19930;-80
2021/06/13 04:59:09;;;;;;;;;;;16.30;99.90;;;;;;6250673;22;19926;-80
2021/06/13 05:01:39;;;;;;;;;;;16.30;99.90;;;;;;6250617;22;19950;-80
2021/06/13 05:04:11;;;;;;;;;;;16.30;99.90;;;;;;6227093;22;19930;-79
2021/06/13 05:06:44;;;;;;;;;;;16.30;99.90;;;;;;6224888;22;19920;-80
2021/06/13 05:09:12;;;;;;;;;;;16.30;99.90;;;;;;6224748;22;20008;-79
2021/06/13 05:11:39;;;;;;;;;;;16.30;99.90;;;;;;6224731;22;20005;-80
2021/06/13 05:14:06;;;;;;;;;;;16.30;99.90;;;;;;6224627;22;19973;-80
2021/06/13 05:16:40;;;;;;;;;;;16.30;99.90;;;;;;6225766;22;19920;-80
2021/06/13 05:19:08;;;;;;;;;;;16.30;99.90;;;;;;6249620;22;19923;-80
2021/06/13 05:21:35;;;;;;;;;;;16.30;99.90;;;;;;6249937;22;20009;-80
2021/06/13 05:24:02;;;;;;;;;;;16.30;99.90;;;;;;6224821;22;19973;-80
2021/06/13 05:26:29;;;;;;;;;;;16.30;99.90;;;;;;6224514;22;19919;-80
2021/06/13 05:28:56;;;;;;;;;;;16.30;99.90;;;;;;6224826;22;19927;-80
2021/06/13 05:31:28;;;;;;;;;;;16.30;99.90;;;;;;6251002;22;19966;-80
2021/06/13 05:33:55;;;;;;;;;;;16.30;99.90;;;;;;6250168;22;19942;-80
2021/06/13 05:36:22;;;;;;;;;;;16.30;99.90;;;;;;6224647;22;19951;-81
2021/06/13 05:38:49;;;;;;;;;;;16.30;99.90;;;;;;6277139;22;19919;-80
2021/06/13 05:41:16;;;;;;;;;;;16.30;99.90;;;;;;6224836;22;19950;-80
2021/06/13 05:43:43;;;;;;;;;;;16.30;99.90;;;;;;6250016;22;20350;-80
2021/06/13 05:46:10;;;;;;;;;;;16.40;99.90;;;;;;6226997;22;20332;-79
2021/06/13 05:48:37;;;;;;;;;;;16.40;99.90;;;;;;6252366;22;19919;-80
2021/06/13 05:51:06;;;;;;;;;;;16.40;99.90;;;;;;6226529;22;19919;-80
2021/06/13 05:53:32;;;;;;;;;;;16.50;99.90;;;;;;6251995;22;19923;-80
2021/06/13 05:55:59;;;;;;;;;;;16.60;99.90;;;;;;6251708;22;19954;-80
2021/06/13 05:58:26;;;;;;;;;;;16.60;99.90;;;;;;6252069;22;19919;-79
2021/06/13 06:00:53;;;;;;;;;;;16.60;99.90;;;;;;6252171;22;19995;-80
2021/06/13 06:03:25;;;;;;;;;;;16.60;99.90;;;;;;6251949;22;19919;-80
2021/06/13 06:05:53;;;;;;;;;;;16.60;99.90;;;;;;6252148;22;19927;-80
2021/06/13 06:08:20;;;;;;;;;;;16.60;99.90;;;;;;6252301;22;19926;-80
2021/06/13 06:10:49;;;;;;;;;;;16.60;99.90;;;;;;6227070;22;19926;-80
2021/06/13 06:13:17;;;;;;;;;;;16.60;99.90;;;;;;6226968;22;19923;-79
2021/06/13 06:15:44;;;;;;;;;;;16.60;99.90;;;;;;6227472;22;19919;-80
2021/06/13 06:18:11;;;;;;;;;;;16.60;99.90;;;;;;6226944;22;19919;-80
2021/06/13 06:20:39;;;;;;;;;;;16.60;99.90;;;;;;6252012;22;20237;-80
2021/06/13 06:23:06;;;;;;;;;;;16.70;99.90;;;;;;6252143;22;19969;-79
2021/06/13 06:25:33;;;;;;;;;;;16.70;99.90;;;;;;6226624;22;19998;-80
2021/06/13 06:28:05;;;;;;;;;;;16.70;99.90;;;;;;6227837;22;19919;-80
2021/06/13 06:30:32;;;;;;;;;;;16.80;99.90;;;;;;6226497;22;20323;-79
2021/06/13 06:33:00;;;;;;;;;;;16.80;99.90;;;;;;6226330;22;19920;-79
2021/06/13 06:35:27;;;;;;;;;;;16.80;99.90;;;;;;6251441;22;19923;-80
2021/06/13 06:37:54;;;;;;;;;;;16.80;99.90;;;;;;6226711;22;19965;-79
2021/06/13 06:40:21;;;;;;;;;;;16.80;99.90;;;;;;6226505;22;20022;-80
2021/06/13 06:42:49;;;;;;;;;;;16.90;99.90;;;;;;6251874;22;19920;-80
2021/06/13 06:45:16;;;;;;;;;;;16.90;99.90;;;;;;6226338;22;19998;-80
2021/06/13 06:47:43;;;;;;;;;;;16.90;99.90;;;;;;6226314;22;20014;-80
2021/06/13 06:50:11;;;;;;;;;;;16.90;99.90;;;;;;6226498;22;19962;-81
2021/06/13 07:01:34;;;;;;;;;;;17.00;99.90;;;;;;6244265;22;19904;-82
2021/06/13 07:05:14;;;;;;;;;;;17.00;99.90;;;;;;6153921;23;19962;-80
2021/06/13 07:52:11;;;;;;;;;;;18.20;99.90;;;;;;6094143;23;19917;-80
2021/06/13 10:00:24;;;;;;;;;;;20.70;97.20;;;;;;6240688;22;19920;-76
2021/06/13 10:02:51;;;;;;;;;;;20.90;96.70;;;;;;6208455;22;19939;-81
2021/06/13 10:05:20;;;;;;;;;;;21.00;93.30;;;;;;6209642;23;19924;-81
2021/06/13 10:08:28;;;;;;;;;;;21.10;93.50;;;;;;6240250;23;19918;-80
2021/06/13 10:15:20;;;;;;;;;;;21.50;96.90;;;;;;6273881;22;19940;-82
2021/06/13 10:22:06;;;;;;;;;;;21.60;95.80;;;;;;6274178;22;19903;-81
2021/06/13 10:30:29;;;;;;;;;;;21.60;93.20;;;;;;6235267;22;19926;-80
2021/06/13 10:35:48;;;;;;;;;;;21.80;92.80;;;;;;6224264;22;19978;-79
2021/06/13 10:38:15;;;;;;;;;;;21.90;90.00;;;;;;6193857;23;19954;-79
2021/06/13 10:40:43;;;;;;;;;;;21.70;90.00;;;;;;6168808;23;19920;-80
2021/06/13 10:43:26;;;;;;;;;;;21.90;87.90;;;;;;6163182;23;19927;-79
2021/06/13 10:46:05;;;;;;;;;;;21.80;89.50;;;;;;6140438;23;20346;-79
2021/06/13 10:48:40;;;;;;;;;;;22.00;89.80;;;;;;6141032;23;19924;-80
2021/06/13 10:51:27;;;;;;;;;;;22.00;86.40;;;;;;6138195;23;19924;-79
2021/06/13 10:54:18;;;;;;;;;;;21.90;82.40;;;;;;6161968;23;19927;-79
2021/06/13 10:56:46;;;;;;;;;;;21.90;83.20;;;;;;6136863;23;19972;-80
2021/06/13 10:59:20;;;;;;;;;;;22.10;87.20;;;;;;6163154;23;19920;-79
2021/06/13 11:02:10;;;;;;;;;;;22.30;83.30;;;;;;6137484;23;19920;-80
2021/06/13 11:04:47;;;;;;;;;;;22.40;82.20;;;;;;6138840;23;19921;-80
2021/06/13 11:07:36;;;;;;;;;;;22.50;83.50;;;;;;6136308;23;19920;-81
2021/06/13 11:10:07;;;;;;;;;;;22.70;84.50;;;;;;6161210;23;19920;-80
2021/06/13 11:12:45;;;;;;;;;;;22.70;83.10;;;;;;6161399;23;20400;-79
2021/06/13 11:15:16;;;;;;;;;;;22.80;83.10;;;;;;6135888;23;19920;-80
2021/06/13 11:18:00;;;;;;;;;;;22.80;80.60;;;;;;6160963;23;19955;-80
2021/06/13 11:20:30;;;;;;;;;;;22.90;83.40;;;;;;6136959;23;19944;-79
2021/06/13 11:23:05;;;;;;;;;;;23.10;81.60;;;;;;6137422;23;20312;-79
2021/06/13 11:25:37;;;;;;;;;;;23.10;77.50;;;;;;6161810;23;19920;-79
2021/06/13 11:28:10;;;;;;;;;;;23.20;76.70;;;;;;6136471;23;19923;-79
2021/06/13 11:30:54;;;;;;;;;;;23.30;76.30;;;;;;6136694;23;20027;-79
2021/06/13 11:33:43;;;;;;;;;;;23.20;75.10;;;;;;6136525;23;19947;-79
2021/06/13 11:36:15;;;;;;;;;;;23.20;78.40;;;;;;6187487;23;19920;-79
2021/06/13 11:38:45;;;;;;;;;;;23.30;77.60;;;;;;6190722;23;19947;-79
2021/06/13 11:41:29;;;;;;;;;;;23.40;82.00;;;;;;6190008;23;19927;-79
2021/06/13 11:44:04;;;;;;;;;;;23.60;77.30;;;;;;6190821;23;20360;-80
2021/06/13 11:46:40;;;;;;;;;;;23.70;72.00;;;;;;6190284;23;19919;-79
2021/06/13 11:49:10;;;;;;;;;;;23.70;69.90;;;;;;6215491;23;20000;-79
2021/06/13 11:52:07;;;;;;;;;;;23.70;70.20;;;;;;6190401;23;20360;-79
2021/06/13 11:54:34;;;;;;;;;;;23.70;69.20;;;;;;6176492;23;19927;-79
2021/06/13 11:57:12;;;;;;;;;;;23.50;67.80;;;;;;6167392;23;19978;-80
2021/06/13 11:59:45;;;;;;;;;;;23.40;69.70;;;;;;6168155;23;19971;-79
2021/06/13 12:02:16;;;;;;;;;;;23.40;71.20;;;;;;6190952;23;19920;-79
2021/06/13 12:04:48;;;;;;;;;;;23.50;66.80;;;;;;6192114;23;19931;-79
2021/06/13 12:07:18;;;;;;;;;;;23.70;66.20;;;;;;6217274;23;19924;-80
2021/06/13 12:09:46;;;;;;;;;;;23.80;65.90;;;;;;6168883;23;19967;-80
2021/06/13 12:12:14;;;;;;;;;;;23.80;65.70;;;;;;6203470;23;19927;-79
2021/06/13 12:14:42;;;;;;;;;;;23.90;63.20;;;;;;6165772;23;19920;-79
2021/06/13 12:17:14;;;;;;;;;;;24.00;64.40;;;;;;6190242;23;19920;-79
2021/06/13 12:19:49;;;;;;;;;;;24.00;63.40;;;;;;6190604;23;19924;-79
2021/06/13 12:22:18;;;;;;;;;;;24.00;62.50;;;;;;6165933;23;20002;-81
2021/06/13 12:27:25;;;;;;;;;;;24.30;64.20;;;;;;6190189;23;19920;-79
2021/06/13 12:29:57;;;;;;;;;;;24.40;63.10;;;;;;6190048;23;19926;-79
2021/06/13 12:32:25;;;;;;;;;;;24.20;62.80;;;;;;6190368;23;19920;-79
2021/06/13 12:35:04;;;;;;;;;;;23.90;62.60;;;;;;6165618;23;19919;-79
2021/06/13 12:37:31;;;;;;;;;;;24.00;62.80;;;;;;6190318;23;19919;-79
2021/06/13 12:40:00;;;;;;;;;;;24.20;61.80;;;;;;6190124;23;19938;-79
2021/06/13 12:42:28;;;;;;;;;;;24.50;62.80;;;;;;6189923;23;19927;-79
2021/06/13 12:45:11;;;;;;;;;;;24.50;61.40;;;;;;6189776;23;20022;-79
2021/06/13 12:47:39;;;;;;;;;;;24.50;61.90;;;;;;6190213;23;19924;-79
2021/06/13 12:50:08;;;;;;;;;;;24.60;59.30;;;;;;6190427;23;19920;-79
2021/06/13 12:52:36;;;;;;;;;;;24.70;60.50;;;;;;6190354;23;19920;-79
2021/06/13 12:55:07;;;;;;;;;;;24.90;61.00;;;;;;6215872;23;19999;-79
2021/06/13 12:57:35;;;;;;;;;;;25.10;61.30;;;;;;6190737;23;20019;-79
2021/06/13 13:00:04;;;;;;;;;;;25.10;58.50;;;;;;6191512;23;19920;-79
2021/06/13 13:02:31;;;;;;;;;;;25.20;57.40;;;;;;6190672;23;20312;-79
2021/06/13 13:04:58;;;;;;;;;;;25.30;56.70;;;;;;6190421;23;19999;-80
2021/06/13 13:07:33;;;;;;;;;;;25.20;55.70;;;;;;6165902;23;19920;-79
2021/06/13 13:10:20;;;;;;;;;;;25.20;55.40;;;;;;6190411;23;20360;-80
2021/06/13 13:12:49;;;;;;;;;;;25.30;54.90;;;;;;6215511;23;19948;-79
2021/06/13 13:15:23;;;;;;;;;;;25.20;53.10;;;;;;6215407;23;19920;-80
2021/06/13 13:17:54;;;;;;;;;;;25.40;55.50;;;;;;6191010;23;19926;-79
2021/06/13 13:20:31;;;;;;;;;;;25.40;55.60;;;;;;6190144;23;19967;-81
2021/06/13 13:23:06;;;;;;;;;;;25.50;57.00;;;;;;6189908;23;19924;-80
2021/06/13 13:25:35;;;;;;;;;;;25.60;55.70;;;;;;6166716;23;19920;-79
2021/06/13 13:28:21;;;;;;;;;;;25.90;55.30;;;;;;6191627;23;19920;-80
2021/06/13 13:30:50;;;;;;;;;;;26.10;54.30;;;;;;6191183;23;19958;-79
2021/06/13 13:33:26;;;;;;;;;;;25.90;54.50;;;;;;6190319;23;19920;-79
2021/06/13 13:35:54;;;;;;;;;;;25.60;52.10;;;;;;6190563;23;19920;-79
2021/06/13 13:38:31;;;;;;;;;;;25.40;51.80;;;;;;6215834;23;20349;-79
2021/06/13 13:40:59;;;;;;;;;;;25.10;52.70;;;;;;6189602;23;20305;-79
2021/06/13 13:43:28;;;;;;;;;;;25.10;54.10;;;;;;6189324;23;19951;-79
2021/06/13 13:45:56;;;;;;;;;;;25.20;52.80;;;;;;6189752;23;19999;-79
2021/06/13 13:48:28;;;;;;;;;;;25.30;53.50;;;;;;6189607;23;19920;-79
2021/06/13 13:51:00;;;;;;;;;;;25.20;51.70;;;;;;6189671;23;20002;-79
2021/06/13 13:53:38;;;;;;;;;;;25.10;51.30;;;;;;6164995;23;20617;-81
2021/06/13 13:56:11;;;;;;;;;;;25.10;48.50;;;;;;6191443;23;20411;-79
2021/06/13 13:58:38;;;;;;;;;;;25.50;50.20;;;;;;6190310;23;19942;-79
2021/06/13 14:01:07;;;;;;;;;;;25.90;48.80;;;;;;6192141;23;19923;-78
2021/06/13 14:03:40;;;;;;;;;;;26.00;48.70;;;;;;6190773;23;19942;-79
2021/06/13 14:06:13;;;;;;;;;;;25.90;47.00;;;;;;6192464;23;19931;-78
2021/06/13 14:08:41;;;;;;;;;;;25.70;48.50;;;;;;6192683;23;20360;-79
2021/06/13 14:11:09;;;;;;;;;;;26.10;48.50;;;;;;6218130;23;19970;-79
2021/06/13 14:13:37;;;;;;;;;;;26.20;47.10;;;;;;6192550;23;19920;-80
2021/06/13 14:16:09;;;;;;;;;;;26.20;46.80;;;;;;6169829;23;19946;-79
2021/06/13 14:18:36;;;;;;;;;;;26.40;46.20;;;;;;6193671;23;19920;-79
2021/06/13 14:21:04;;;;;;;;;;;26.70;46.30;;;;;;6168580;23;19999;-80
2021/06/13 14:23:31;;;;;;;;;;;26.80;47.30;;;;;;6193000;23;19920;-79
2021/06/13 14:26:03;;;;;;;;;;;26.90;48.60;;;;;;6193175;23;19920;-79
2021/06/13 14:28:31;;;;;;;;;;;26.70;47.10;;;;;;6193302;23;20337;-79
2021/06/13 14:30:58;;;;;;;;;;;26.90;48.60;;;;;;6168231;23;20319;-79
2021/06/13 14:33:29;;;;;;;;;;;26.90;46.80;;;;;;6195299;22;19920;31
2021/06/13 14:35:57;;;;;;;;;;;27.10;47.40;;;;;;6193250;23;19970;-79
2021/06/13 14:38:24;;;;;;;;;;;27.30;47.20;;;;;;6217609;23;19926;-79
2021/06/13 14:40:51;;;;;;;;;;;27.40;47.00;;;;;;6192918;23;19923;-79
2021/06/13 14:43:18;;;;;;;;;;;27.80;46.10;;;;;;6192066;23;19920;-80
2021/06/13 14:45:46;;;;;;;;;;;28.20;46.70;;;;;;6193288;23;19920;-79
2021/06/13 14:48:13;;;;;;;;;;;28.20;46.10;;;;;;6168106;23;19978;-78
2021/06/13 14:50:40;;;;;;;;;;;27.50;44.20;;;;;;6193088;23;20002;-79
2021/06/13 14:53:07;;;;;;;;;;;27.70;44.80;;;;;;6194338;22;20303;-79
2021/06/13 14:55:39;;;;;;;;;;;27.90;43.20;;;;;;6219510;23;19920;-79
2021/06/13 14:58:06;;;;;;;;;;;28.20;42.60;;;;;;6167716;23;19924;-82
2021/06/13 15:00:34;;;;;;;;;;;28.40;42.70;;;;;;6168818;23;19919;-78
2021/06/13 15:03:01;;;;;;;;;;;28.40;40.60;;;;;;6223383;23;19927;-80
2021/06/13 15:05:33;;;;;;;;;;;28.50;41.00;;;;;;6186032;23;19920;-82
2021/06/13 15:08:05;;;;;;;;;;;29.10;42.00;;;;;;6186366;23;19946;-84
2021/06/13 15:10:32;;;;;;;;;;;29.30;40.30;;;;;;6185627;23;19924;-87
2021/06/13 15:13:04;;;;;;;;;;;29.50;38.90;;;;;;6185496;23;19943;-84
2021/06/13 15:15:35;;;;;;;;;;;29.60;39.50;;;;;;6210274;23;19935;-85
2021/06/13 15:18:06;;;;;;;;;;;29.70;40.30;;;;;;6185070;23;19927;-82
2021/06/13 15:20:38;;;;;;;;;;;29.80;38.80;;;;;;6186675;23;19994;-81
2021/06/13 15:23:15;;;;;;;;;;;29.80;38.20;;;;;;6185983;23;20341;-82
2021/06/13 15:25:42;;;;;;;;;;;29.70;36.10;;;;;;6234892;23;19953;-79
2021/06/13 15:28:14;;;;;;;;;;;29.40;36.10;;;;;;6184723;23;19924;-86
2021/06/13 15:30:46;;;;;;;;;;;29.60;37.70;;;;;;6185089;23;19920;-81
2021/06/13 15:33:13;;;;;;;;;;;29.90;35.00;;;;;;6206162;23;19964;-81
2021/06/13 15:35:45;;;;;;;;;;;30.30;37.80;;;;;;6183299;23;19936;-82
2021/06/13 15:38:12;;;;;;;;;;;30.50;38.30;;;;;;6205501;23;19920;-85
2021/06/13 15:40:39;;;;;;;;;;;30.60;37.90;;;;;;6205444;23;20304;-83
2021/06/13 15:43:07;;;;;;;;;;;30.50;35.50;;;;;;6202429;23;19920;-80
2021/06/13 15:45:37;;;;;;;;;;;30.60;38.20;;;;;;6180043;23;19935;-80
2021/06/13 15:48:05;;;;;;;;;;;30.60;37.40;;;;;;6181107;23;19920;-80
2021/06/13 15:50:32;;;;;;;;;;;30.90;38.30;;;;;;6201905;23;19930;-80
2021/06/13 15:52:58;;;;;;;;;;;31.00;37.50;;;;;;6175270;23;19920;-80
2021/06/13 15:58:32;;;;;;;;;;;31.00;36.80;;;;;;6192257;23;19924;-86
2021/06/13 16:00:59;;;;;;;;;;;31.40;36.90;;;;;;6194620;23;20171;-84
2021/06/13 16:03:26;;;;;;;;;;;31.50;37.00;;;;;;6192096;23;19924;-84
2021/06/13 16:05:53;;;;;;;;;;;31.50;37.20;;;;;;6193428;23;19931;-82
2021/06/13 16:08:25;;;;;;;;;;;31.60;36.60;;;;;;6171699;23;19960;-80
2021/06/13 16:10:57;;;;;;;;;;;31.60;36.40;;;;;;6169923;23;19920;-81
2021/06/13 16:13:24;;;;;;;;;;;31.60;36.30;;;;;;6168829;23;21345;-84
2021/06/13 16:15:56;;;;;;;;;;;31.80;37.00;;;;;;6190825;23;19920;-80
2021/06/13 16:18:24;;;;;;;;;;;31.90;36.40;;;;;;6189940;23;19927;-81
2021/06/13 16:20:51;;;;;;;;;;;32.20;36.10;;;;;;6171277;23;19937;-83
2021/06/13 16:23:18;;;;;;;;;;;32.20;35.80;;;;;;6196065;23;19920;-81
2021/06/13 16:25:44;;;;;;;;;;;32.10;36.10;;;;;;6198312;23;19927;-81
2021/06/13 16:28:16;;;;;;;;;;;32.10;35.00;;;;;;6199295;23;19928;-81
2021/06/13 16:30:48;;;;;;;;;;;31.90;34.40;;;;;;6199749;23;19920;-85
2021/06/13 16:33:14;;;;;;;;;;;31.90;34.50;;;;;;6198333;23;19943;-82
2021/06/13 16:35:41;;;;;;;;;;;32.20;34.90;;;;;;6199533;23;19944;-85
2021/06/13 16:38:08;;;;;;;;;;;32.20;34.30;;;;;;6198654;23;19971;-81
2021/06/13 16:40:35;;;;;;;;;;;32.50;34.30;;;;;;6173999;23;19924;-81
2021/06/13 16:43:02;;;;;;;;;;;32.80;33.80;;;;;;6193801;23;20368;-82
2021/06/13 16:45:34;;;;;;;;;;;33.10;33.90;;;;;;6192913;23;20223;-81
2021/06/13 16:48:01;;;;;;;;;;;33.20;34.40;;;;;;6192638;23;19921;-82
2021/06/13 16:50:32;;;;;;;;;;;33.00;33.60;;;;;;6192167;23;19920;-84
2021/06/13 16:52:59;;;;;;;;;;;32.90;32.80;;;;;;6198434;23;19976;-81
2021/06/13 16:55:26;;;;;;;;;;;32.80;33.70;;;;;;6200182;23;20430;-81
2021/06/13 16:57:54;;;;;;;;;;;32.60;32.80;;;;;;6196906;23;19924;-83
2021/06/13 17:00:21;;;;;;;;;;;32.10;33.00;;;;;;6170383;23;19931;-81
2021/06/13 17:02:53;;;;;;;;;;;32.00;33.60;;;;;;6195600;23;19931;-81
2021/06/13 17:05:20;;;;;;;;;;;32.10;33.40;;;;;;6195660;23;19952;-81
2021/06/13 17:07:47;;;;;;;;;;;32.00;33.00;;;;;;6198867;23;19921;-86
2021/06/13 17:10:14;;;;;;;;;;;31.90;33.90;;;;;;6173143;23;19936;-82
2021/06/13 17:12:41;;;;;;;;;;;32.20;33.40;;;;;;6189208;23;19931;-82
2021/06/13 17:15:08;;;;;;;;;;;32.20;33.50;;;;;;6166165;23;19952;-81
2021/06/13 17:17:35;;;;;;;;;;;32.20;33.80;;;;;;6190126;23;19921;-81
2021/06/13 17:20:07;;;;;;;;;;;32.00;33.90;;;;;;6165927;23;19951;-81
2021/06/13 17:22:44;;;;;;;;;;;31.90;34.70;;;;;;6188443;23;19920;-81
2021/06/13 17:25:18;;;;;;;;;;;31.80;34.60;;;;;;6163174;23;19940;-80
2021/06/13 17:27:45;;;;;;;;;;;32.00;34.90;;;;;;6186309;23;20250;-81
2021/06/13 17:30:13;;;;;;;;;;;31.70;34.00;;;;;;6189427;23;19932;-81
2021/06/13 17:32:40;;;;;;;;;;;31.70;35.70;;;;;;6184467;23;19927;-81
2021/06/13 17:35:07;;;;;;;;;;;31.50;34.80;;;;;;6187126;23;19951;-81
2021/06/13 17:37:35;;;;;;;;;;;31.40;35.20;;;;;;6187106;23;19948;-81
2021/06/13 17:40:07;;;;;;;;;;;31.20;35.90;;;;;;6187190;23;19951;-81
2021/06/13 17:42:34;;;;;;;;;;;31.10;36.20;;;;;;6186964;23;19975;-81
2021/06/13 17:45:02;;;;;;;;;;;30.90;35.40;;;;;;6188758;23;19920;-82
2021/06/13 17:47:29;;;;;;;;;;;30.60;35.30;;;;;;6190318;23;19927;-84
2021/06/13 17:50:01;;;;;;;;;;;30.30;36.60;;;;;;6192854;23;19921;-83
2021/06/13 17:52:29;;;;;;;;;;;30.10;37.10;;;;;;6192025;23;19921;-82
2021/06/13 17:54:56;;;;;;;;;;;29.90;37.40;;;;;;6191934;23;19926;-83
2021/06/13 17:57:28;;;;;;;;;;;29.60;37.00;;;;;;6193243;23;19920;-83
2021/06/13 17:59:59;;;;;;;;;;;29.20;37.50;;;;;;6168528;23;20003;-83
2021/06/13 18:02:26;;;;;;;;;;;28.90;38.10;;;;;;6192256;23;19921;-82
2021/06/13 18:04:53;;;;;;;;;;;28.60;38.70;;;;;;6194023;23;19920;-83
2021/06/13 18:07:20;;;;;;;;;;;28.30;39.00;;;;;;6193303;23;19921;-83
2021/06/13 18:09:47;;;;;;;;;;;28.10;39.40;;;;;;6193386;23;20131;-82
2021/06/13 18:12:14;;;;;;;;;;;28.00;40.60;;;;;;6166197;23;19924;-83